Time;durP1;ratioP1;P1;durP2;ratioP2;P2;SDS_P1;SDS_P2;PMS_P1;PMS_P2;Temp;Humidity;BMP_temperature;BMP_pressure;BME280_temperature;BME280_humidity;BME280_pressure;Samples;Min_cycle;Max_cycle;Signal;HPM_P1;HPM_P2
2021/07/24 00:01:57;;;;;;;10.33;9.23;;;;;;;;;;5056656;28;20452;-62
2021/07/24 00:04:22;;;;;;;10.27;9.27;;;;;;;;;;5057672;28;20266;-62
2021/07/24 00:06:47;;;;;;;10.27;9.27;;;;;;;;;;5057042;28;20308;-62
2021/07/24 00:09:13;;;;;;;10.00;9.03;;;;;;;;;;5057327;28;20220;-62
2021/07/24 00:11:39;;;;;;;11.70;9.17;;;;;;;;;;5056914;28;20578;-62
2021/07/24 00:14:04;;;;;;;9.27;8.23;;;;;;;;;;5057186;28;20228;-61
2021/07/24 00:16:29;;;;;;;8.80;8.00;;;;;;;;;;5056809;28;20672;-63
2021/07/24 00:18:55;;;;;;;8.80;7.93;;;;;;;;;;5057230;28;20221;-62
2021/07/24 00:21:20;;;;;;;7.93;7.33;;;;;;;;;;5057204;28;20217;-62
2021/07/24 00:23:45;;;;;;;8.90;8.10;;;;;;;;;;5056845;28;20228;-62
2021/07/24 00:26:12;;;;;;;9.60;8.80;;;;;;;;;;5057047;28;20236;-62
2021/07/24 00:28:38;;;;;;;9.00;8.30;;;;;;;;;;5056762;28;20304;-62
2021/07/24 00:31:04;;;;;;;10.00;9.10;;;;;;;;;;5056848;28;20525;-63
2021/07/24 00:33:29;;;;;;;9.40;8.50;;;;;;;;;;5056384;28;20484;-61
2021/07/24 00:35:55;;;;;;;9.53;8.73;;;;;;;;;;5056924;28;20224;-62
2021/07/24 00:38:20;;;;;;;9.90;9.10;;;;;;;;;;5056917;28;20308;-63
2021/07/24 00:40:52;;;;;;;8.80;8.10;;;;;;;;;;5056554;28;20332;-63
2021/07/24 00:43:17;;;;;;;9.03;8.20;;;;;;;;;;5055781;28;20263;-61
2021/07/24 00:45:48;;;;;;;9.70;8.90;;;;;;;;;;5055457;28;20935;-63
2021/07/24 00:48:18;;;;;;;9.70;8.80;;;;;;;;;;5056637;28;20216;-62
2021/07/24 00:50:47;;;;;;;8.63;7.97;;;;;;;;;;5055305;28;20455;-61
2021/07/24 00:53:20;;;;;;;8.83;8.03;;;;;;;;;;5056483;28;20463;-61
2021/07/24 00:55:45;;;;;;;8.73;8.10;;;;;;;;;;5056245;28;20862;-62
2021/07/24 00:58:27;;;;;;;8.10;7.43;;;;;;;;;;5055539;28;20484;-61
2021/07/24 01:00:53;;;;;;;7.80;7.17;;;;;;;;;;5055950;28;20228;-61
2021/07/24 01:03:19;;;;;;;9.10;7.37;;;;;;;;;;5056437;28;20939;-61
2021/07/24 01:05:45;;;;;;;8.40;7.60;;;;;;;;;;5056054;28;20659;-61
2021/07/24 01:08:11;;;;;;;8.30;7.47;;;;;;;;;;5056113;28;20296;-62
2021/07/24 01:10:37;;;;;;;10.37;7.97;;;;;;;;;;5055411;28;20547;-61
2021/07/24 01:13:02;;;;;;;9.70;8.17;;;;;;;;;;5054726;28;20229;-61
2021/07/24 01:15:28;;;;;;;9.40;8.50;;;;;;;;;;5052223;28;20598;-61
2021/07/24 01:17:53;;;;;;;9.27;8.47;;;;;;;;;;5056629;28;20213;-61
2021/07/24 01:20:18;;;;;;;8.50;7.80;;;;;;;;;;5055692;28;20221;-61
2021/07/24 01:22:43;;;;;;;7.50;6.90;;;;;;;;;;5057569;28;20255;-62
2021/07/24 01:25:09;;;;;;;7.40;6.80;;;;;;;;;;5055211;28;20237;-63
2021/07/24 01:27:45;;;;;;;8.73;7.67;;;;;;;;;;5055531;28;20679;-61
2021/07/24 01:30:11;;;;;;;8.33;7.47;;;;;;;;;;5055382;28;20296;-61
2021/07/24 01:32:36;;;;;;;9.00;8.30;;;;;;;;;;5054497;28;20479;-62
2021/07/24 01:35:02;;;;;;;9.27;8.03;;;;;;;;;;5055426;28;20447;-61
2021/07/24 01:37:27;;;;;;;8.73;7.83;;;;;;;;;;5055597;28;20228;-60
2021/07/24 01:39:52;;;;;;;10.30;9.17;;;;;;;;;;5054421;28;20643;-61
2021/07/24 01:42:18;;;;;;;8.23;7.43;;;;;;;;;;5054672;28;20213;-62
2021/07/24 01:44:43;;;;;;;8.93;8.20;;;;;;;;;;5054866;28;20256;-62
2021/07/24 01:47:08;;;;;;;9.40;8.40;;;;;;;;;;5054893;28;20296;-62
2021/07/24 01:55:13;;;;;;;8.40;7.70;;;;;;;;;;5053954;28;20795;-62
2021/07/24 01:57:41;;;;;;;9.40;8.60;;;;;;;;;;5054333;28;21308;-61
2021/07/24 02:00:11;;;;;;;9.30;8.50;;;;;;;;;;5055066;28;20464;-61
2021/07/24 02:02:36;;;;;;;9.10;8.30;;;;;;;;;;5054637;28;20444;-60
2021/07/24 02:05:04;;;;;;;9.20;8.40;;;;;;;;;;5054149;28;20471;-62
2021/07/24 02:07:33;;;;;;;12.40;11.20;;;;;;;;;;5054630;28;20958;-61
2021/07/24 02:09:58;;;;;;;11.27;10.27;;;;;;;;;;5053733;28;20866;-61
2021/07/24 02:12:23;;;;;;;10.17;9.20;;;;;;;;;;5052679;28;20460;-62
2021/07/24 02:14:49;;;;;;;11.43;10.50;;;;;;;;;;5054521;28;20248;-61
2021/07/24 02:17:15;;;;;;;11.30;10.40;;;;;;;;;;5053431;28;20205;-62
2021/07/24 02:19:40;;;;;;;10.13;9.33;;;;;;;;;;5053994;28;20474;-61
2021/07/24 02:22:06;;;;;;;11.37;10.27;;;;;;;;;;5054486;28;20209;-62
2021/07/24 02:24:31;;;;;;;11.20;9.17;;;;;;;;;;5074239;28;20224;-61
2021/07/24 02:26:56;;;;;;;11.47;10.57;;;;;;;;;;5065310;28;20290;-62
2021/07/24 02:29:21;;;;;;;10.40;9.50;;;;;;;;;;5053468;28;20213;-63
2021/07/24 02:31:47;;;;;;;11.30;10.20;;;;;;;;;;5054459;28;20314;-62
2021/07/24 02:34:12;;;;;;;12.03;10.80;;;;;;;;;;5054416;28;20229;-61
2021/07/24 02:36:37;;;;;;;12.70;10.47;;;;;;;;;;5053419;28;20350;-61
2021/07/24 02:39:03;;;;;;;11.03;9.93;;;;;;;;;;5054337;28;20224;-62
2021/07/24 02:41:28;;;;;;;13.33;10.63;;;;;;;;;;5053852;28;20371;-62
2021/07/24 02:43:53;;;;;;;12.67;11.33;;;;;;;;;;5053785;28;20304;-62
2021/07/24 02:46:19;;;;;;;12.23;11.20;;;;;;;;;;5053557;28;20556;-61
2021/07/24 02:48:46;;;;;;;12.77;11.73;;;;;;;;;;5054291;28;20217;-61
2021/07/24 02:51:12;;;;;;;12.20;11.10;;;;;;;;;;5053777;28;20456;-61
2021/07/24 02:53:37;;;;;;;12.20;11.00;;;;;;;;;;5052950;28;20456;-61
2021/07/24 02:56:03;;;;;;;12.13;10.83;;;;;;;;;;5054114;28;20523;-61
2021/07/24 02:58:28;;;;;;;11.10;10.13;;;;;;;;;;5053508;28;20664;-61
2021/07/24 03:00:53;;;;;;;13.40;12.10;;;;;;;;;;5053209;28;20247;-61
2021/07/24 03:03:18;;;;;;;13.77;12.50;;;;;;;;;;5052660;28;20205;-61
2021/07/24 03:05:44;;;;;;;13.33;12.23;;;;;;;;;;5054098;28;20348;-61
2021/07/24 03:08:10;;;;;;;12.20;11.00;;;;;;;;;;5053109;28;20205;-61
2021/07/24 03:10:35;;;;;;;13.27;12.10;;;;;;;;;;5053264;28;20292;-62
2021/07/24 03:13:01;;;;;;;13.13;12.03;;;;;;;;;;5053602;28;20244;-61
2021/07/24 03:15:26;;;;;;;13.50;12.30;;;;;;;;;;5052740;28;20279;-61
2021/07/24 03:17:51;;;;;;;14.43;13.10;;;;;;;;;;5053461;28;20300;-61
2021/07/24 03:20:16;;;;;;;15.80;14.13;;;;;;;;;;5053305;28;20228;-62
2021/07/24 03:22:42;;;;;;;13.60;12.20;;;;;;;;;;5052878;28;20220;-61
2021/07/24 03:25:08;;;;;;;14.50;13.00;;;;;;;;;;5053016;28;20300;-61
2021/07/24 03:27:33;;;;;;;15.17;13.87;;;;;;;;;;5053381;28;20240;-62
2021/07/24 03:29:58;;;;;;;13.43;12.03;;;;;;;;;;5052568;28;20236;-62
2021/07/24 03:32:23;;;;;;;13.47;12.17;;;;;;;;;;5051654;28;20295;-62
2021/07/24 03:34:49;;;;;;;16.13;12.47;;;;;;;;;;5053504;28;20217;-61
2021/07/24 03:37:14;;;;;;;13.60;12.30;;;;;;;;;;5053560;28;20294;-62
2021/07/24 03:39:39;;;;;;;14.43;13.07;;;;;;;;;;5052501;28;20311;-62
2021/07/24 03:42:04;;;;;;;14.80;13.50;;;;;;;;;;5053025;28;20228;-62
2021/07/24 03:44:30;;;;;;;14.53;13.17;;;;;;;;;;5053278;28;20300;-61
2021/07/24 03:46:55;;;;;;;14.93;13.53;;;;;;;;;;5053132;28;20543;-62
2021/07/24 03:49:20;;;;;;;14.70;13.20;;;;;;;;;;5052484;28;20300;-62
2021/07/24 03:51:45;;;;;;;14.30;13.00;;;;;;;;;;5053661;28;20224;-61
2021/07/24 03:54:11;;;;;;;14.20;12.90;;;;;;;;;;5053210;28;20225;-61
2021/07/24 03:56:36;;;;;;;14.97;13.37;;;;;;;;;;5052428;28;20224;-61
2021/07/24 03:59:01;;;;;;;15.40;14.00;;;;;;;;;;5053225;28;20747;-62
2021/07/24 04:01:28;;;;;;;14.33;13.03;;;;;;;;;;5053085;28;20232;-61
2021/07/24 04:03:53;;;;;;;13.43;12.00;;;;;;;;;;5052719;28;20292;-62
2021/07/24 04:06:24;;;;;;;14.90;13.50;;;;;;;;;;5052964;28;20602;-62
2021/07/24 04:08:50;;;;;;;14.13;12.70;;;;;;;;;;5052949;28;20751;-62
2021/07/24 04:11:15;;;;;;;14.57;13.10;;;;;;;;;;5052651;28;20539;-62
2021/07/24 04:13:41;;;;;;;13.53;12.30;;;;;;;;;;5052223;28;20244;-61
2021/07/24 04:16:06;;;;;;;15.83;14.40;;;;;;;;;;5052537;28;20209;-61
2021/07/24 04:18:34;;;;;;;14.80;12.87;;;;;;;;;;5052737;28;20211;-61
2021/07/24 04:20:59;;;;;;;13.67;12.37;;;;;;;;;;5052363;28;20217;-61
2021/07/24 04:23:26;;;;;;;16.10;14.70;;;;;;;;;;5064237;28;20463;-62
2021/07/24 04:25:51;;;;;;;14.47;13.03;;;;;;;;;;5072976;28;20208;-61
2021/07/24 04:28:16;;;;;;;14.43;13.10;;;;;;;;;;5052369;28;20806;-61
2021/07/24 04:30:42;;;;;;;15.00;13.50;;;;;;;;;;5052587;28;20312;-62
2021/07/24 04:33:07;;;;;;;14.67;13.20;;;;;;;;;;5054564;28;20217;-62
2021/07/24 04:35:32;;;;;;;15.27;13.87;;;;;;;;;;5055871;28;20300;-61
2021/07/24 04:37:57;;;;;;;15.10;12.37;;;;;;;;;;5056281;28;20213;-62
2021/07/24 04:40:23;;;;;;;13.50;12.20;;;;;;;;;;5056703;28;20602;-61
2021/07/24 04:42:48;;;;;;;15.40;13.93;;;;;;;;;;5047289;28;20221;-61
2021/07/24 04:45:14;;;;;;;14.70;13.40;;;;;;;;;;5052477;28;20740;-61
2021/07/24 04:47:39;;;;;;;13.73;12.37;;;;;;;;;;5056828;28;20225;-60
2021/07/24 04:50:05;;;;;;;15.37;13.87;;;;;;;;;;5063597;28;20459;-61
2021/07/24 04:52:31;;;;;;;15.50;13.80;;;;;;;;;;5057016;28;20236;-61
2021/07/24 04:54:59;;;;;;;14.73;13.33;;;;;;;;;;5068411;28;20257;-62
2021/07/24 04:57:24;;;;;;;14.17;12.83;;;;;;;;;;5062823;28;20222;-61
2021/07/24 04:59:51;;;;;;;14.50;13.13;;;;;;;;;;5058431;28;20455;-61
2021/07/24 05:02:18;;;;;;;13.93;12.53;;;;;;;;;;5057135;28;20295;-61
2021/07/24 05:04:44;;;;;;;14.53;13.07;;;;;;;;;;5068191;28;20999;-62
2021/07/24 05:07:13;;;;;;;13.80;12.50;;;;;;;;;;5057700;28;20785;-60
2021/07/24 05:09:40;;;;;;;15.00;13.60;;;;;;;;;;5054929;28;20804;-60
2021/07/24 05:12:05;;;;;;;14.73;13.40;;;;;;;;;;5068024;28;20464;-61
2021/07/24 05:14:30;;;;;;;14.80;13.40;;;;;;;;;;5062171;28;20805;-62
2021/07/24 05:17:05;;;;;;;14.73;13.23;;;;;;;;;;5051454;28;20549;-61
2021/07/24 05:19:41;;;;;;;14.30;12.80;;;;;;;;;;5056061;28;20236;-62
2021/07/24 05:22:07;;;;;;;14.00;12.70;;;;;;;;;;5067329;28;20456;-60
2021/07/24 05:24:34;;;;;;;14.73;13.23;;;;;;;;;;5060883;28;20463;-62
2021/07/24 05:26:59;;;;;;;14.10;12.80;;;;;;;;;;5057809;28;20456;-60
2021/07/24 05:29:24;;;;;;;13.50;12.20;;;;;;;;;;5067988;28;20954;-61
2021/07/24 05:31:50;;;;;;;13.83;12.40;;;;;;;;;;5059145;28;20237;-61
2021/07/24 05:34:15;;;;;;;13.10;11.90;;;;;;;;;;5056637;28;20225;-61
2021/07/24 05:36:40;;;;;;;14.40;13.10;;;;;;;;;;5066984;28;20670;-62
2021/07/24 05:39:05;;;;;;;14.27;12.97;;;;;;;;;;5059824;28;20228;-61
2021/07/24 05:41:31;;;;;;;14.07;12.87;;;;;;;;;;5057260;28;20733;-60
2021/07/24 05:43:56;;;;;;;13.90;12.30;;;;;;;;;;5044875;28;20225;-61
2021/07/24 05:46:21;;;;;;;14.37;12.97;;;;;;;;;;5065432;28;20607;-62
2021/07/24 05:48:47;;;;;;;12.97;11.73;;;;;;;;;;5059089;28;20205;-61
2021/07/24 05:51:12;;;;;;;14.10;12.80;;;;;;;;;;5062757;28;20300;-62
2021/07/24 05:53:37;;;;;;;15.60;14.00;;;;;;;;;;5064471;28;20216;-62
2021/07/24 05:56:03;;;;;;;14.40;13.10;;;;;;;;;;5059546;28;20318;-62
2021/07/24 05:58:28;;;;;;;15.93;13.63;;;;;;;;;;5055371;28;20221;-61
2021/07/24 06:00:54;;;;;;;14.40;12.53;;;;;;;;;;5068051;28;20943;-62
2021/07/24 06:03:19;;;;;;;20.23;14.50;;;;;;;;;;5058383;28;20335;-61
2021/07/24 06:05:44;;;;;;;13.13;11.93;;;;;;;;;;5056171;28;20366;-62
2021/07/24 06:08:10;;;;;;;13.50;12.20;;;;;;;;;;5065784;28;20209;-61
2021/07/24 06:10:35;;;;;;;13.87;12.43;;;;;;;;;;5065211;28;20684;-60
2021/07/24 06:13:00;;;;;;;14.47;13.13;;;;;;;;;;5053983;28;20225;-61
2021/07/24 06:15:26;;;;;;;14.20;12.73;;;;;;;;;;5067923;28;20294;-61
2021/07/24 06:17:51;;;;;;;14.20;13.00;;;;;;;;;;5054957;28;20220;-60
2021/07/24 06:20:18;;;;;;;15.37;13.87;;;;;;;;;;5054626;28;20303;-61
2021/07/24 06:22:43;;;;;;;15.37;13.93;;;;;;;;;;5056451;28;20312;-62
2021/07/24 06:25:09;;;;;;;14.63;13.33;;;;;;;;;;5067940;28;20526;-60
2021/07/24 06:27:34;;;;;;;14.47;13.00;;;;;;;;;;5052658;28;20217;-61
2021/07/24 06:30:00;;;;;;;15.60;14.07;;;;;;;;;;5055206;28;20228;-60
2021/07/24 06:32:25;;;;;;;14.30;12.90;;;;;;;;;;5066603;28;20304;-61
2021/07/24 06:34:50;;;;;;;15.03;13.73;;;;;;;;;;5059977;28;20316;-61
2021/07/24 06:37:15;;;;;;;18.10;15.27;;;;;;;;;;5058108;28;20209;-62
2021/07/24 06:39:41;;;;;;;16.47;14.57;;;;;;;;;;5054460;28;20316;-59
2021/07/24 06:42:06;;;;;;;16.40;14.70;;;;;;;;;;5066686;28;20220;-60
2021/07/24 06:44:31;;;;;;;17.07;14.90;;;;;;;;;;5057991;28;20611;-61
2021/07/24 06:46:57;;;;;;;16.73;15.07;;;;;;;;;;5066964;28;20728;-62
2021/07/24 06:49:22;;;;;;;16.97;15.10;;;;;;;;;;5063717;28;20223;-61
2021/07/24 06:51:48;;;;;;;16.47;14.90;;;;;;;;;;5059298;28;20234;-61
2021/07/24 06:54:13;;;;;;;15.03;13.73;;;;;;;;;;5056326;28;20224;-61
2021/07/24 06:56:38;;;;;;;14.33;12.73;;;;;;;;;;5068106;28;20270;-62
2021/07/24 06:59:03;;;;;;;15.00;13.67;;;;;;;;;;5063862;28;20213;-61
2021/07/24 07:01:29;;;;;;;16.40;14.90;;;;;;;;;;5056495;28;20628;-60
2021/07/24 07:03:54;;;;;;;14.13;12.83;;;;;;;;;;5061534;28;20217;-61
2021/07/24 07:06:19;;;;;;;14.57;13.17;;;;;;;;;;5060347;28;20593;-61
2021/07/24 07:08:44;;;;;;;13.90;12.50;;;;;;;;;;5055375;28;20217;-61
2021/07/24 07:11:10;;;;;;;19.93;14.73;;;;;;;;;;5067034;28;20216;-61
2021/07/24 07:13:36;;;;;;;16.13;14.43;;;;;;;;;;5061063;28;20699;-61
2021/07/24 07:16:07;;;;;;;18.43;14.33;;;;;;;;;;5054481;28;20224;-61
2021/07/24 07:18:32;;;;;;;15.27;13.77;;;;;;;;;;5060983;28;20462;-61
2021/07/24 07:20:58;;;;;;;15.77;14.30;;;;;;;;;;5073252;28;22848;-61
2021/07/24 07:23:23;;;;;;;16.80;15.20;;;;;;;;;;5061254;28;20216;-62
2021/07/24 07:25:48;;;;;;;14.90;12.57;;;;;;;;;;5053122;28;20304;-63
2021/07/24 07:28:13;;;;;;;16.77;14.60;;;;;;;;;;5066757;28;20599;-62
2021/07/24 07:30:39;;;;;;;14.17;12.97;;;;;;;;;;5060548;28;20270;-62
2021/07/24 07:33:04;;;;;;;16.00;14.37;;;;;;;;;;5052081;28;20221;-65
2021/07/24 07:35:29;;;;;;;15.87;14.37;;;;;;;;;;5066967;28;20558;-63
2021/07/24 07:37:56;;;;;;;14.90;13.60;;;;;;;;;;5059688;28;20228;-64
2021/07/24 07:40:21;;;;;;;16.40;14.90;;;;;;;;;;5053026;28;20299;-64
2021/07/24 07:42:47;;;;;;;16.20;14.37;;;;;;;;;;5057026;28;20467;-65
2021/07/24 07:45:12;;;;;;;15.47;13.97;;;;;;;;;;5041754;28;20222;-64
2021/07/24 07:47:38;;;;;;;14.73;13.23;;;;;;;;;;5058560;28;20335;-65
2021/07/24 07:50:04;;;;;;;20.60;15.53;;;;;;;;;;5057744;28;20228;-65
2021/07/24 07:52:30;;;;;;;16.10;14.40;;;;;;;;;;5061820;28;20220;-64
2021/07/24 07:54:55;;;;;;;16.07;13.87;;;;;;;;;;5058910;28;20533;-64
2021/07/24 07:57:20;;;;;;;15.07;13.53;;;;;;;;;;5056402;28;20716;-65
2021/07/24 07:59:45;;;;;;;17.13;15.50;;;;;;;;;;5066403;28;20295;-65
2021/07/24 08:02:11;;;;;;;16.33;14.83;;;;;;;;;;5058398;28;20250;-64
2021/07/24 08:04:36;;;;;;;17.43;15.83;;;;;;;;;;5053904;28;20220;-64
2021/07/24 08:07:01;;;;;;;16.20;14.73;;;;;;;;;;5056654;28;20255;-65
2021/07/24 08:09:26;;;;;;;16.40;14.73;;;;;;;;;;5070608;28;20545;-64
2021/07/24 08:11:52;;;;;;;16.13;14.53;;;;;;;;;;5059556;28;20657;-65
2021/07/24 08:14:17;;;;;;;15.17;13.73;;;;;;;;;;5057083;28;20228;-64
2021/07/24 08:16:43;;;;;;;18.40;16.73;;;;;;;;;;5068223;28;20213;-65
2021/07/24 08:19:09;;;;;;;15.83;13.73;;;;;;;;;;5059694;28;20213;-63
2021/07/24 08:21:34;;;;;;;14.97;13.67;;;;;;;;;;5057385;28;20483;-65
2021/07/24 08:23:59;;;;;;;16.47;14.90;;;;;;;;;;5070149;28;20295;-64
2021/07/24 08:26:24;;;;;;;16.63;15.03;;;;;;;;;;5059174;28;20678;-65
2021/07/24 08:28:50;;;;;;;16.70;15.10;;;;;;;;;;5056032;28;20304;-64
2021/07/24 08:31:16;;;;;;;14.83;13.43;;;;;;;;;;5056813;28;20225;-64
2021/07/24 08:33:41;;;;;;;14.87;13.47;;;;;;;;;;5069495;28;20617;-64
2021/07/24 08:36:07;;;;;;;17.13;15.43;;;;;;;;;;5056585;28;20225;-65
2021/07/24 08:38:32;;;;;;;16.93;15.37;;;;;;;;;;5067832;28;20231;-64
2021/07/24 08:40:57;;;;;;;17.60;16.00;;;;;;;;;;5062678;28;20220;-65
2021/07/24 08:43:23;;;;;;;15.03;13.50;;;;;;;;;;5045945;28;20217;-64
2021/07/24 08:45:48;;;;;;;14.87;13.20;;;;;;;;;;5062560;28;20235;-65
2021/07/24 08:48:13;;;;;;;15.77;14.33;;;;;;;;;;5063500;28;20350;-64
2021/07/24 08:50:40;;;;;;;16.73;15.33;;;;;;;;;;5069342;28;20320;-65
2021/07/24 08:53:06;;;;;;;15.73;14.27;;;;;;;;;;5066378;28;20217;-65
2021/07/24 08:55:33;;;;;;;15.83;14.43;;;;;;;;;;5049751;28;20849;-64
2021/07/24 08:57:59;;;;;;;16.17;14.67;;;;;;;;;;5062432;28;20474;-65
2021/07/24 09:00:27;;;;;;;15.33;14.00;;;;;;;;;;5054973;28;20940;-64
2021/07/24 09:02:53;;;;;;;16.87;15.47;;;;;;;;;;5054683;28;20912;-64
2021/07/24 09:05:19;;;;;;;15.80;14.30;;;;;;;;;;5069195;28;20474;-65
2021/07/24 09:07:46;;;;;;;17.47;15.77;;;;;;;;;;5059062;28;20460;-64
2021/07/24 09:10:12;;;;;;;17.37;15.67;;;;;;;;;;5062642;28;20220;-64
2021/07/24 09:12:43;;;;;;;18.00;16.37;;;;;;;;;;5062783;28;20805;-65
2021/07/24 09:15:09;;;;;;;17.57;15.90;;;;;;;;;;5064890;28;20221;-64
2021/07/24 09:17:35;;;;;;;17.23;15.70;;;;;;;;;;5056666;28;20975;-65
2021/07/24 09:20:01;;;;;;;15.57;14.13;;;;;;;;;;5063195;28;20503;-64
2021/07/24 09:22:27;;;;;;;18.20;16.50;;;;;;;;;;5063136;28;20561;-64
2021/07/24 09:25:08;;;;;;;15.97;14.50;;;;;;;;;;5056496;28;20656;-65
2021/07/24 09:27:47;;;;;;;17.67;14.90;;;;;;;;;;5059110;28;20462;-65
2021/07/24 09:30:27;;;;;;;15.40;13.90;;;;;;;;;;5063690;28;20466;-65
2021/07/24 09:33:12;;;;;;;16.00;14.47;;;;;;;;;;5053759;28;20493;-64
2021/07/24 09:35:51;;;;;;;16.20;14.60;;;;;;;;;;5057573;28;20966;-64
2021/07/24 09:38:31;;;;;;;15.80;14.40;;;;;;;;;;5064417;28;20454;-64
2021/07/24 09:40:59;;;;;;;16.00;14.57;;;;;;;;;;5055009;28;20448;-64
2021/07/24 09:43:40;;;;;;;18.40;16.80;;;;;;;;;;5068522;28;20519;-64
2021/07/24 09:46:13;;;;;;;16.10;14.60;;;;;;;;;;5051521;28;20467;-64
2021/07/24 09:48:40;;;;;;;15.23;13.73;;;;;;;;;;5054943;28;20451;-64
2021/07/24 09:51:05;;;;;;;17.47;15.77;;;;;;;;;;5054914;28;20491;-64
2021/07/24 09:53:57;;;;;;;17.97;16.30;;;;;;;;;;5068864;28;20456;-65
2021/07/24 09:56:37;;;;;;;17.30;15.73;;;;;;;;;;5052651;28;21320;-64
2021/07/24 09:59:22;;;;;;;15.73;14.13;;;;;;;;;;5063482;28;20458;-64
2021/07/24 10:01:55;;;;;;;14.97;13.67;;;;;;;;;;5061800;28;20455;-64
2021/07/24 10:04:30;;;;;;;16.10;14.40;;;;;;;;;;5054063;28;20460;-64
2021/07/24 10:07:06;;;;;;;14.30;13.00;;;;;;;;;;5059372;28;20478;-65
2021/07/24 10:09:33;;;;;;;15.90;14.40;;;;;;;;;;5061403;28;20510;-64
2021/07/24 10:12:00;;;;;;;15.00;13.70;;;;;;;;;;5058642;28;20767;-64
2021/07/24 10:14:25;;;;;;;14.63;13.33;;;;;;;;;;5055331;28;20471;-64
2021/07/24 10:16:52;;;;;;;16.07;14.57;;;;;;;;;;5067595;28;20811;-64
2021/07/24 10:19:19;;;;;;;15.93;14.27;;;;;;;;;;5058298;28;20227;-64
2021/07/24 10:21:45;;;;;;;14.73;13.33;;;;;;;;;;5054788;28;20467;-64
2021/07/24 10:24:11;;;;;;;16.63;14.87;;;;;;;;;;5058274;28;20845;-65
2021/07/24 10:26:36;;;;;;;16.20;14.20;;;;;;;;;;5066828;28;20467;-64
2021/07/24 10:29:06;;;;;;;16.57;15.07;;;;;;;;;;5053822;28;20213;-64
2021/07/24 10:31:36;;;;;;;15.13;13.77;;;;;;;;;;5060826;28;20301;-64
2021/07/24 10:34:02;;;;;;;14.27;12.97;;;;;;;;;;5041881;28;21011;-64
2021/07/24 10:36:36;;;;;;;14.93;13.63;;;;;;;;;;5053824;28;20451;-64
2021/07/24 10:39:16;;;;;;;14.60;13.30;;;;;;;;;;5067959;28;20456;-63
2021/07/24 10:41:45;;;;;;;14.63;13.23;;;;;;;;;;5066022;28;20891;-64
2021/07/24 10:44:16;;;;;;;14.40;13.10;;;;;;;;;;5054269;28;20451;-64
2021/07/24 10:46:44;;;;;;;14.37;13.10;;;;;;;;;;5067532;28;20524;-64
2021/07/24 10:49:35;;;;;;;14.40;13.10;;;;;;;;;;5061693;28;20495;-65
2021/07/24 10:52:07;;;;;;;14.30;13.10;;;;;;;;;;5054396;28;20523;-64
2021/07/24 10:54:51;;;;;;;14.30;13.07;;;;;;;;;;5065504;28;20497;-65
2021/07/24 10:57:55;;;;;;;13.23;11.93;;;;;;;;;;5049091;28;20802;-64
2021/07/24 11:00:20;;;;;;;14.97;13.67;;;;;;;;;;5057114;28;20465;-63
2021/07/24 11:02:46;;;;;;;15.90;14.40;;;;;;;;;;5053954;28;20463;-65
2021/07/24 11:05:25;;;;;;;15.63;14.13;;;;;;;;;;5066431;28;20308;-64
2021/07/24 11:07:50;;;;;;;13.70;12.50;;;;;;;;;;5057674;28;20841;-64
2021/07/24 11:10:15;;;;;;;14.03;12.80;;;;;;;;;;5060732;28;20463;-64
2021/07/24 11:12:41;;;;;;;15.17;13.67;;;;;;;;;;5060106;28;20297;-64
2021/07/24 11:15:08;;;;;;;14.37;13.17;;;;;;;;;;5063205;28;20217;-64
2021/07/24 11:17:33;;;;;;;14.00;12.80;;;;;;;;;;5055432;28;20252;-64
2021/07/24 11:20:03;;;;;;;13.40;12.30;;;;;;;;;;5061140;28;20482;-65
2021/07/24 11:22:29;;;;;;;13.27;12.17;;;;;;;;;;5061800;28;20224;-64
2021/07/24 11:24:54;;;;;;;13.60;12.40;;;;;;;;;;5054083;28;20754;-64
2021/07/24 11:27:33;;;;;;;14.30;12.23;;;;;;;;;;5053998;28;20312;-64
2021/07/24 11:30:04;;;;;;;15.20;13.80;;;;;;;;;;5064339;28;20225;-64
2021/07/24 11:32:39;;;;;;;13.30;12.20;;;;;;;;;;5053559;28;20451;-64
2021/07/24 11:35:07;;;;;;;12.67;11.47;;;;;;;;;;5064706;28;20467;-64
2021/07/24 11:37:37;;;;;;;13.60;12.33;;;;;;;;;;5042212;28;20465;-65
2021/07/24 11:40:04;;;;;;;13.53;12.23;;;;;;;;;;5053351;28;20471;-64
2021/07/24 11:42:30;;;;;;;12.90;11.70;;;;;;;;;;5065957;28;20542;-64
2021/07/24 11:44:55;;;;;;;12.20;11.10;;;;;;;;;;5052719;28;20962;-65
2021/07/24 11:47:20;;;;;;;13.77;12.57;;;;;;;;;;5064223;28;20228;-64
2021/07/24 11:49:46;;;;;;;13.57;12.37;;;;;;;;;;5062927;28;20244;-64
2021/07/24 11:52:11;;;;;;;14.20;13.10;;;;;;;;;;5071705;28;20220;-65
2021/07/24 11:54:37;;;;;;;13.73;12.73;;;;;;;;;;5065552;28;20599;-65
2021/07/24 11:57:04;;;;;;;13.17;12.13;;;;;;;;;;5063011;28;20216;-65
2021/07/24 11:59:31;;;;;;;12.93;11.83;;;;;;;;;;5070506;28;20469;-65
2021/07/24 12:01:57;;;;;;;13.07;12.17;;;;;;;;;;5064820;28;20553;-66
2021/07/24 12:04:22;;;;;;;13.47;12.40;;;;;;;;;;5057869;28;20455;-65
2021/07/24 12:07:04;;;;;;;13.27;12.20;;;;;;;;;;5060412;28;20470;-65
2021/07/24 12:09:30;;;;;;;13.67;12.47;;;;;;;;;;5071955;28;20255;-65
2021/07/24 12:12:02;;;;;;;13.73;12.83;;;;;;;;;;5061200;28;20528;-65
2021/07/24 12:14:28;;;;;;;12.57;11.37;;;;;;;;;;5056299;28;20484;-65
2021/07/24 12:17:10;;;;;;;12.53;11.63;;;;;;;;;;5052613;28;20468;-67
2021/07/24 12:19:40;;;;;;;11.87;11.00;;;;;;;;;;5056361;28;20461;-65
2021/07/24 12:22:13;;;;;;;14.30;13.10;;;;;;;;;;5056443;28;20447;-64
2021/07/24 12:24:40;;;;;;;13.67;12.77;;;;;;;;;;5058997;28;20970;-64
2021/07/24 12:27:18;;;;;;;13.13;12.23;;;;;;;;;;5059966;28;20455;-65
2021/07/24 12:30:01;;;;;;;12.70;11.60;;;;;;;;;;5062688;28;20486;-65
2021/07/24 12:32:40;;;;;;;12.90;11.90;;;;;;;;;;5055200;28;20270;-65
2021/07/24 12:35:20;;;;;;;12.63;11.73;;;;;;;;;;5050780;28;21011;-65
2021/07/24 12:37:46;;;;;;;12.43;11.33;;;;;;;;;;5063904;28;20530;-64
2021/07/24 12:40:16;;;;;;;12.18;11.30;;;;;;;;;;5074603;28;20351;-65
2021/07/24 12:42:41;;;;;;;12.55;11.75;;;;;;;;;;5068154;28;20672;-66
2021/07/24 12:45:07;;;;;;;12.20;11.32;;;;;;;;;;5059857;28;20212;-65
2021/07/24 12:47:37;;;;;;;12.60;11.70;;;;;;;;;;5061657;28;20216;-64
2021/07/24 12:50:16;;;;;;;12.93;11.82;;;;;;;;;;5074565;28;20222;-65
2021/07/24 12:52:55;;;;;;;13.25;12.27;;;;;;;;;;5065965;28;20296;-66
2021/07/24 12:55:22;;;;;;;13.30;12.38;;;;;;;;;;5073297;28;20228;-65
2021/07/24 12:57:48;;;;;;;11.98;11.18;;;;;;;;;;5072933;28;20215;-64
2021/07/24 13:00:16;;;;;;;13.95;12.98;;;;;;;;;;5063697;28;20211;-65
2021/07/24 13:02:41;;;;;;;12.23;11.40;;;;;;;;;;5056725;28;20228;-65
2021/07/24 13:05:08;;;;;;;12.63;11.63;;;;;;;;;;5059385;28;20351;-64
2021/07/24 13:07:37;;;;;;;12.68;11.73;;;;;;;;;;5058801;28;20212;-65
2021/07/24 13:10:03;;;;;;;12.43;11.43;;;;;;;;;;5066770;28;20226;-65
2021/07/24 13:12:28;;;;;;;11.75;10.90;;;;;;;;;;5080739;28;20327;-65
2021/07/24 13:14:54;;;;;;;13.25;12.25;;;;;;;;;;5067917;28;20291;-64
2021/07/24 13:17:19;;;;;;;11.83;10.93;;;;;;;;;;5068448;28;20651;-64
2021/07/24 13:19:45;;;;;;;11.80;10.90;;;;;;;;;;5072146;28;20243;-64
2021/07/24 13:22:11;;;;;;;13.43;12.17;;;;;;;;;;5070935;28;20211;-64
2021/07/24 13:24:36;;;;;;;12.97;12.00;;;;;;;;;;5065990;28;20224;-65
2021/07/24 13:29:46;;;;;;;12.07;11.23;;;;;;;;;;5052667;28;20261;-64
2021/07/24 13:32:14;;;;;;;13.23;11.93;;;;;;;;;;5065827;28;20451;-64
2021/07/24 13:34:40;;;;;;;12.97;11.67;;;;;;;;;;5051451;28;20251;-64
2021/07/24 13:37:05;;;;;;;12.67;11.77;;;;;;;;;;5065741;28;20733;-64
2021/07/24 13:39:30;;;;;;;11.67;10.77;;;;;;;;;;5072528;28;20242;-64
2021/07/24 13:41:56;;;;;;;12.47;11.37;;;;;;;;;;5073210;28;20306;-65
2021/07/24 13:44:21;;;;;;;12.77;11.87;;;;;;;;;;5039457;28;20237;-64
2021/07/24 13:46:47;;;;;;;12.20;11.30;;;;;;;;;;5067002;28;20299;-65
2021/07/24 13:49:13;;;;;;;11.53;10.73;;;;;;;;;;5066799;28;20219;-65
2021/07/24 13:51:40;;;;;;;10.50;9.70;;;;;;;;;;5077798;28;20220;-66
2021/07/24 13:54:08;;;;;;;11.73;10.93;;;;;;;;;;5067249;28;20793;-64
2021/07/24 13:56:33;;;;;;;11.03;10.23;;;;;;;;;;5065666;28;21000;-64
2021/07/24 13:58:58;;;;;;;12.10;11.30;;;;;;;;;;5071225;28;20462;-64
2021/07/24 14:01:24;;;;;;;11.63;10.83;;;;;;;;;;5072540;28;20238;-64
2021/07/24 14:03:49;;;;;;;12.57;11.57;;;;;;;;;;5065986;28;20294;-65
2021/07/24 14:06:14;;;;;;;12.03;10.93;;;;;;;;;;5064639;28;20255;-65
2021/07/24 14:08:39;;;;;;;12.07;11.10;;;;;;;;;;5070426;28;20224;-65
2021/07/24 14:11:23;;;;;;;11.83;10.93;;;;;;;;;;5070720;28;20284;-65
2021/07/24 14:13:48;;;;;;;14.00;12.73;;;;;;;;;;5066886;28;20553;-64
2021/07/24 14:16:15;;;;;;;13.87;12.77;;;;;;;;;;5064393;28;20530;-65
2021/07/24 14:18:41;;;;;;;12.97;11.97;;;;;;;;;;5066516;28;20297;-64
2021/07/24 14:21:06;;;;;;;12.60;11.70;;;;;;;;;;5069109;28;20463;-64
2021/07/24 14:23:32;;;;;;;12.33;11.47;;;;;;;;;;5065535;28;20469;-65
2021/07/24 14:26:02;;;;;;;11.93;11.03;;;;;;;;;;5062230;28;20239;-65
2021/07/24 14:28:29;;;;;;;13.50;12.50;;;;;;;;;;5065670;28;20264;-64
2021/07/24 14:30:54;;;;;;;12.37;11.40;;;;;;;;;;5068804;28;20799;-65